Time;durP1;ratioP1;P1;durP2;ratioP2;P2;SDS_P1;SDS_P2;PMS_P1;PMS_P2;Temp;Humidity;BMP_temperature;BMP_pressure;BME280_temperature;BME280_humidity;BME280_pressure;Samples;Min_cycle;Max_cycle;Signal;HPM_P1;HPM_P2
2021/08/19 00:01:59;;;;;;;11.45;7.20;;;;;;;;;;6056715;23;20479;-75
2021/08/19 00:04:26;;;;;;;10.88;7.32;;;;;;;;;;6053698;23;20019;-73
2021/08/19 00:06:53;;;;;;;10.30;7.20;;;;;;;;;;6053948;23;20069;-74
2021/08/19 00:09:20;;;;;;;10.50;6.93;;;;;;;;;;6063785;23;20074;-73
2021/08/19 00:11:47;;;;;;;13.00;7.80;;;;;;;;;;6051991;23;20019;-74
2021/08/19 00:14:14;;;;;;;11.43;7.53;;;;;;;;;;6048899;23;20023;-73
2021/08/19 00:16:41;;;;;;;11.32;7.32;;;;;;;;;;6056659;23;20134;-75
2021/08/19 00:19:08;;;;;;;9.60;7.32;;;;;;;;;;6028745;23;20448;-72
2021/08/19 00:21:35;;;;;;;11.45;7.85;;;;;;;;;;6052103;23;20038;-72
2021/08/19 00:24:03;;;;;;;11.90;7.43;;;;;;;;;;6028411;23;20396;-73
2021/08/19 00:26:30;;;;;;;11.98;7.53;;;;;;;;;;6042441;23;20479;-73
2021/08/19 00:29:04;;;;;;;12.48;8.10;;;;;;;;;;6065278;23;20534;-71
2021/08/19 00:31:31;;;;;;;13.30;7.40;;;;;;;;;;6051995;23;20025;-74
2021/08/19 00:33:58;;;;;;;11.48;7.60;;;;;;;;;;6027873;23;20460;-73
2021/08/19 00:36:27;;;;;;;12.07;8.43;;;;;;;;;;6052353;23;20019;-76
2021/08/19 00:38:54;;;;;;;11.70;8.32;;;;;;;;;;6047429;23;20326;-80
2021/08/19 00:41:21;;;;;;;11.93;7.57;;;;;;;;;;6038313;23;20029;-76
2021/08/19 00:43:51;;;;;;;13.50;8.27;;;;;;;;;;6037308;23;20494;-75
2021/08/19 00:46:37;;;;;;;15.82;9.43;;;;;;;;;;6027477;23;20082;-76
2021/08/19 00:49:05;;;;;;;9.50;7.80;;;;;;;;;;6038618;23;20049;-73
2021/08/19 00:51:46;;;;;;;13.55;7.78;;;;;;;;;;6064605;23;20019;-74
2021/08/19 00:54:20;;;;;;;11.40;8.00;;;;;;;;;;6051806;23;20025;-72
2021/08/19 00:56:52;;;;;;;11.38;7.97;;;;;;;;;;6050525;23;20464;-74
2021/08/19 00:59:23;;;;;;;11.65;8.00;;;;;;;;;;6051998;23;20029;-74
2021/08/19 01:01:57;;;;;;;10.70;7.88;;;;;;;;;;6054153;23;20022;-74
2021/08/19 01:04:25;;;;;;;13.05;7.63;;;;;;;;;;6052709;23;20116;-73
2021/08/19 01:06:52;;;;;;;12.93;8.00;;;;;;;;;;6052965;23;20132;-73
2021/08/19 01:09:19;;;;;;;10.23;8.43;;;;;;;;;;6049528;23;20023;-73
2021/08/19 01:11:46;;;;;;;11.30;8.20;;;;;;;;;;6050058;23;20011;-75
2021/08/19 01:14:17;;;;;;;12.07;8.15;;;;;;;;;;6051903;23;20063;-73
2021/08/19 01:16:45;;;;;;;11.82;8.10;;;;;;;;;;6053502;23;20015;-74
2021/08/19 01:19:18;;;;;;;12.52;7.97;;;;;;;;;;6050566;23;20023;-74
2021/08/19 01:21:46;;;;;;;9.85;8.10;;;;;;;;;;6028544;23;20021;-73
2021/08/19 01:24:15;;;;;;;13.82;8.57;;;;;;;;;;6063139;23;20011;-74
2021/08/19 01:26:42;;;;;;;12.80;8.32;;;;;;;;;;6044297;23;20015;-73
2021/08/19 01:29:11;;;;;;;13.85;10.07;;;;;;;;;;6066582;23;20032;-73
2021/08/19 01:31:55;;;;;;;13.20;10.65;;;;;;;;;;6054184;23;20010;-72
2021/08/19 01:34:22;;;;;;;19.92;14.73;;;;;;;;;;6042684;23;20066;-73
2021/08/19 01:36:49;;;;;;;27.65;21.60;;;;;;;;;;6057606;23;20007;-71
2021/08/19 01:39:16;;;;;;;17.20;11.73;;;;;;;;;;6052307;23;20027;-72
2021/08/19 01:41:43;;;;;;;22.67;15.98;;;;;;;;;;6039369;23;20402;-72
2021/08/19 01:44:13;;;;;;;17.67;12.30;;;;;;;;;;6051840;23;20022;-73
2021/08/19 01:46:40;;;;;;;14.82;11.85;;;;;;;;;;6041554;23;20066;-71
2021/08/19 01:49:08;;;;;;;15.40;11.82;;;;;;;;;;6032808;23;20479;-78
2021/08/19 01:51:35;;;;;;;13.20;9.45;;;;;;;;;;6060649;23;20447;-75
2021/08/19 01:54:02;;;;;;;15.73;10.07;;;;;;;;;;6049781;23;20396;-73
2021/08/19 01:56:29;;;;;;;15.07;11.00;;;;;;;;;;6055630;23;20019;-71
2021/08/19 01:58:57;;;;;;;16.17;10.95;;;;;;;;;;6054210;23;20023;-72
2021/08/19 02:01:26;;;;;;;17.10;11.25;;;;;;;;;;6053316;23;20026;-71
2021/08/19 02:03:54;;;;;;;16.50;12.25;;;;;;;;;;6051509;23;20026;-72
2021/08/19 02:06:24;;;;;;;17.77;13.20;;;;;;;;;;6048063;23;20022;-74
2021/08/19 02:08:52;;;;;;;17.67;11.88;;;;;;;;;;6054410;23;20074;-72
2021/08/19 02:11:21;;;;;;;17.55;13.18;;;;;;;;;;6048943;23;20015;-72
2021/08/19 02:13:49;;;;;;;18.23;13.43;;;;;;;;;;6050106;23;20011;-73
2021/08/19 02:16:17;;;;;;;15.52;12.18;;;;;;;;;;6053991;23;20054;-73
2021/08/19 02:18:44;;;;;;;19.13;12.63;;;;;;;;;;6044675;23;20019;-76
2021/08/19 02:21:11;;;;;;;15.93;12.85;;;;;;;;;;6050608;23;20043;-73
2021/08/19 02:23:39;;;;;;;19.63;13.38;;;;;;;;;;6052965;23;20095;-73
2021/08/19 02:26:06;;;;;;;16.73;12.55;;;;;;;;;;6051723;23;20015;-73
2021/08/19 02:28:36;;;;;;;17.27;12.70;;;;;;;;;;6053547;23;20146;-77
2021/08/19 02:31:05;;;;;;;17.48;12.27;;;;;;;;;;6053583;23;20142;-73
2021/08/19 02:33:32;;;;;;;17.35;12.50;;;;;;;;;;6062068;23;20025;-73
2021/08/19 02:35:59;;;;;;;19.42;13.90;;;;;;;;;;6053917;23;20352;-75
2021/08/19 02:38:28;;;;;;;16.75;13.90;;;;;;;;;;6064035;23;20015;-72
2021/08/19 02:40:55;;;;;;;17.45;13.48;;;;;;;;;;6053997;23;20063;-72
2021/08/19 02:43:22;;;;;;;17.77;13.73;;;;;;;;;;6053122;23;20019;-71
2021/08/19 02:45:49;;;;;;;20.60;14.35;;;;;;;;;;6016629;23;20045;-73
2021/08/19 02:48:17;;;;;;;23.65;14.20;;;;;;;;;;6053277;23;20189;-74
2021/08/19 02:50:45;;;;;;;18.85;14.88;;;;;;;;;;6027794;23;20011;-73
2021/08/19 02:53:12;;;;;;;22.42;14.30;;;;;;;;;;6051811;23;20022;-75
2021/08/19 02:55:39;;;;;;;22.48;13.60;;;;;;;;;;6053090;23;20089;-73
2021/08/19 02:58:07;;;;;;;20.83;15.13;;;;;;;;;;6056001;23;20620;-81
2021/08/19 03:00:34;;;;;;;22.60;15.23;;;;;;;;;;6054118;23;20093;-75
2021/08/19 03:03:03;;;;;;;18.75;14.00;;;;;;;;;;6044056;23;20023;-79
2021/08/19 03:05:30;;;;;;;21.23;14.43;;;;;;;;;;6066087;23;20049;-73
2021/08/19 03:07:57;;;;;;;25.98;16.30;;;;;;;;;;6064681;23;20015;-74
2021/08/19 03:10:24;;;;;;;24.00;15.35;;;;;;;;;;6053996;23;20011;-75
2021/08/19 03:12:51;;;;;;;18.85;15.00;;;;;;;;;;6058506;23;20408;-72
2021/08/19 03:15:19;;;;;;;18.70;13.40;;;;;;;;;;6037714;23;20015;-72
2021/08/19 03:17:47;;;;;;;22.13;14.13;;;;;;;;;;6040819;23;20025;-74
2021/08/19 03:20:14;;;;;;;18.80;14.20;;;;;;;;;;6063097;23;20026;-76
2021/08/19 03:22:41;;;;;;;19.33;13.70;;;;;;;;;;6047716;23;20021;-72
2021/08/19 03:25:11;;;;;;;16.80;12.32;;;;;;;;;;6052966;23;20479;-78
2021/08/19 03:27:38;;;;;;;19.38;12.70;;;;;;;;;;6055626;23;20448;-73
2021/08/19 03:30:06;;;;;;;16.80;12.32;;;;;;;;;;6050501;23;20512;-72
2021/08/19 03:32:33;;;;;;;20.45;12.32;;;;;;;;;;6054961;23;20034;-72
2021/08/19 03:35:00;;;;;;;16.58;12.60;;;;;;;;;;6061356;23;20503;-77
2021/08/19 03:37:29;;;;;;;16.92;12.55;;;;;;;;;;6053439;23;20015;-72
2021/08/19 03:39:56;;;;;;;15.32;13.25;;;;;;;;;;6054321;23;20089;-72
2021/08/19 03:42:23;;;;;;;18.00;13.00;;;;;;;;;;6039830;23;20010;-72
2021/08/19 03:44:50;;;;;;;17.83;13.23;;;;;;;;;;6059790;23;20011;-73
2021/08/19 03:47:17;;;;;;;21.70;14.10;;;;;;;;;;6050946;23;20023;-72
2021/08/19 03:49:44;;;;;;;17.52;13.25;;;;;;;;;;6053732;23;20015;-72
2021/08/19 03:52:12;;;;;;;18.40;13.90;;;;;;;;;;5990576;23;20036;-72
2021/08/19 03:54:39;;;;;;;18.45;14.38;;;;;;;;;;5993709;23;20026;-74
2021/08/19 03:57:07;;;;;;;20.80;14.32;;;;;;;;;;6001236;23;20019;-71
2021/08/19 03:59:34;;;;;;;19.65;13.35;;;;;;;;;;5992340;23;20028;-73
2021/08/19 04:02:01;;;;;;;19.58;13.55;;;;;;;;;;6066483;23;20057;-72
2021/08/19 04:04:29;;;;;;;21.13;14.23;;;;;;;;;;6031842;23;20022;-73
2021/08/19 04:06:56;;;;;;;17.95;13.73;;;;;;;;;;6062264;23;20046;-73
2021/08/19 04:09:23;;;;;;;19.63;13.90;;;;;;;;;;6053968;23;20015;-73
2021/08/19 04:11:50;;;;;;;20.90;14.63;;;;;;;;;;6043858;23;20018;-72
2021/08/19 04:14:19;;;;;;;19.15;14.25;;;;;;;;;;6050683;23;20094;-72
2021/08/19 04:16:46;;;;;;;15.90;13.57;;;;;;;;;;6062513;23;20360;-70
2021/08/19 04:19:14;;;;;;;;;;;;;;;;;;6043397;23;20015;-72
2021/08/19 04:21:41;;;;;;;17.58;13.70;;;;;;;;;;6055219;23;19914;-72
2021/08/19 04:24:08;;;;;;;18.13;12.40;;;;;;;;;;6055231;23;20007;-75
2021/08/19 04:26:35;;;;;;;18.40;13.57;;;;;;;;;;6042587;23;20042;-71
2021/08/19 04:29:02;;;;;;;20.73;13.68;;;;;;;;;;6061562;23;20508;-72
2021/08/19 04:31:30;;;;;;;18.70;13.98;;;;;;;;;;6016310;23;20486;-72
2021/08/19 04:33:57;;;;;;;18.20;14.20;;;;;;;;;;6074521;23;20483;-75
2021/08/19 04:36:25;;;;;;;18.27;12.52;;;;;;;;;;6046409;23;20031;-72
2021/08/19 04:38:52;;;;;;;19.42;14.15;;;;;;;;;;6049827;23;20082;-72
2021/08/19 04:41:35;;;;;;;16.52;13.02;;;;;;;;;;6012343;23;20455;-73
2021/08/19 04:44:02;;;;;;;19.50;13.73;;;;;;;;;;6053900;23;20344;-73
2021/08/19 04:46:29;;;;;;;18.00;13.48;;;;;;;;;;6053754;23;20015;-72
2021/08/19 04:48:59;;;;;;;16.92;13.30;;;;;;;;;;6053174;23;20011;-72
2021/08/19 04:51:26;;;;;;;19.58;13.35;;;;;;;;;;6060988;23;20015;-72
2021/08/19 04:53:53;;;;;;;17.95;14.23;;;;;;;;;;6031218;23;20463;-73
2021/08/19 04:56:27;;;;;;;18.50;13.32;;;;;;;;;;6028739;23;20022;-76
2021/08/19 04:58:54;;;;;;;20.17;14.05;;;;;;;;;;6058979;23;20089;-73
2021/08/19 05:01:21;;;;;;;17.88;13.20;;;;;;;;;;6055342;23;20022;-78
2021/08/19 05:03:48;;;;;;;17.20;12.48;;;;;;;;;;6055150;23;20021;-76
2021/08/19 05:06:16;;;;;;;21.50;13.10;;;;;;;;;;6036926;23;20034;-73
2021/08/19 05:08:43;;;;;;;18.67;12.90;;;;;;;;;;6073930;23;20098;-75
2021/08/19 05:11:12;;;;;;;17.90;12.70;;;;;;;;;;6057637;23;20090;-76
2021/08/19 05:13:41;;;;;;;21.83;13.60;;;;;;;;;;6057473;23;20046;-72
2021/08/19 05:16:08;;;;;;;15.63;12.63;;;;;;;;;;6029634;23;20019;-73
2021/08/19 05:18:35;;;;;;;16.88;12.88;;;;;;;;;;6054843;23;20011;-74
2021/08/19 05:21:02;;;;;;;19.77;14.27;;;;;;;;;;6055105;23;20344;-76
2021/08/19 05:23:30;;;;;;;20.63;13.65;;;;;;;;;;6055099;23;20014;-73
2021/08/19 05:25:57;;;;;;;17.80;12.85;;;;;;;;;;6053844;23;20010;-74
2021/08/19 05:28:24;;;;;;;20.50;14.20;;;;;;;;;;6064139;23;20020;-71
2021/08/19 05:30:52;;;;;;;17.48;12.93;;;;;;;;;;6053172;23;20089;-74
2021/08/19 05:33:19;;;;;;;19.42;12.93;;;;;;;;;;6048770;23;20044;-71
2021/08/19 05:35:46;;;;;;;19.90;13.48;;;;;;;;;;6062186;23;20006;-70
2021/08/19 05:38:13;;;;;;;19.27;14.52;;;;;;;;;;6009515;23;20442;-74
2021/08/19 05:40:40;;;;;;;18.50;13.38;;;;;;;;;;6061738;23;20014;-73
2021/08/19 05:43:08;;;;;;;18.48;13.90;;;;;;;;;;6045382;23;20058;-83
2021/08/19 05:45:36;;;;;;;18.50;12.93;;;;;;;;;;6073133;23;20018;-72
2021/08/19 05:48:04;;;;;;;18.08;13.93;;;;;;;;;;6056647;23;20090;-71
2021/08/19 05:50:36;;;;;;;18.52;13.60;;;;;;;;;;6023102;23;20027;-71
2021/08/19 05:53:05;;;;;;;22.13;13.05;;;;;;;;;;6056148;23;20398;-73
2021/08/19 05:55:32;;;;;;;20.25;13.48;;;;;;;;;;6043101;23;20086;-72
2021/08/19 05:58:00;;;;;;;19.55;13.15;;;;;;;;;;6068008;23;20037;-73
2021/08/19 06:00:28;;;;;;;17.65;13.45;;;;;;;;;;6054862;23;20040;-72
2021/08/19 06:02:55;;;;;;;20.70;12.50;;;;;;;;;;6055585;23;20049;-76
2021/08/19 06:05:22;;;;;;;20.77;13.63;;;;;;;;;;6057405;23;20046;-73
2021/08/19 06:07:49;;;;;;;20.83;14.02;;;;;;;;;;6055989;23;20015;-72
2021/08/19 06:10:16;;;;;;;20.52;13.52;;;;;;;;;;6055403;23;20351;-72
2021/08/19 06:12:43;;;;;;;19.00;13.70;;;;;;;;;;6028863;23;20022;-72
2021/08/19 06:15:11;;;;;;;19.27;13.63;;;;;;;;;;6041949;23;20086;-72
2021/08/19 06:17:38;;;;;;;17.70;13.85;;;;;;;;;;6053757;23;20018;-73
2021/08/19 06:20:07;;;;;;;19.83;13.40;;;;;;;;;;6055044;23;25670;-71
2021/08/19 06:22:35;;;;;;;19.27;12.65;;;;;;;;;;6054075;23;20483;-72
2021/08/19 06:25:02;;;;;;;20.83;13.70;;;;;;;;;;6044973;23;20014;-72
2021/08/19 06:27:29;;;;;;;19.35;13.63;;;;;;;;;;6059297;23;20128;-72
2021/08/19 06:29:56;;;;;;;19.10;13.27;;;;;;;;;;6056596;23;20059;-72
2021/08/19 06:32:23;;;;;;;17.60;13.02;;;;;;;;;;6054673;23;20011;-78
2021/08/19 06:34:50;;;;;;;16.90;13.95;;;;;;;;;;6044273;23;20081;-72
2021/08/19 06:37:18;;;;;;;19.80;14.35;;;;;;;;;;6073926;23;20015;-72
2021/08/19 06:39:45;;;;;;;18.63;12.52;;;;;;;;;;6009767;23;20154;-76
2021/08/19 06:42:12;;;;;;;18.48;12.93;;;;;;;;;;6056123;23;20070;-72
2021/08/19 06:44:39;;;;;;;18.85;13.82;;;;;;;;;;6054572;23;20023;-72
2021/08/19 06:47:09;;;;;;;18.92;12.93;;;;;;;;;;6056275;23;20070;-74
2021/08/19 06:49:39;;;;;;;20.27;13.57;;;;;;;;;;6038883;23;20086;-72
2021/08/19 06:52:08;;;;;;;20.33;14.55;;;;;;;;;;6003332;23;20351;-72
2021/08/19 06:54:35;;;;;;;19.55;13.38;;;;;;;;;;6039267;23;20081;-78
2021/08/19 06:57:03;;;;;;;19.02;13.35;;;;;;;;;;6076189;23;20029;-71
2021/08/19 06:59:30;;;;;;;;;;;;;;;;;;6053664;23;20038;-71
2021/08/19 07:01:57;;;;;;;17.45;13.20;;;;;;;;;;6056508;23;19925;-72
2021/08/19 07:04:28;;;;;;;20.88;14.77;;;;;;;;;;6044119;23;20514;-73
2021/08/19 07:06:57;;;;;;;19.10;14.40;;;;;;;;;;6066930;23;20077;-72
2021/08/19 07:09:24;;;;;;;22.40;14.88;;;;;;;;;;6062543;23;20456;-71
2021/08/19 07:11:51;;;;;;;19.08;14.82;;;;;;;;;;6028888;23;20019;-72
2021/08/19 07:14:18;;;;;;;23.10;15.02;;;;;;;;;;6056283;23;20018;-72
2021/08/19 07:16:45;;;;;;;20.83;16.40;;;;;;;;;;6056094;23;20065;-71
2021/08/19 07:19:14;;;;;;;24.63;15.05;;;;;;;;;;6063027;23;20093;-72
2021/08/19 07:21:44;;;;;;;25.80;18.63;;;;;;;;;;6056525;23;20047;-72
2021/08/19 07:24:14;;;;;;;21.90;17.17;;;;;;;;;;6052963;23;20046;-71
2021/08/19 07:26:41;;;;;;;24.33;17.70;;;;;;;;;;6054994;23;20463;-72
2021/08/19 07:29:08;;;;;;;23.95;18.35;;;;;;;;;;6057770;23;20021;-76
2021/08/19 07:31:38;;;;;;;27.73;18.40;;;;;;;;;;6054632;23;20035;-71
2021/08/19 07:34:06;;;;;;;25.60;17.45;;;;;;;;;;6039319;23;20093;-72
2021/08/19 07:36:34;;;;;;;24.05;16.92;;;;;;;;;;6068105;23;20015;-74
2021/08/19 07:39:04;;;;;;;27.23;17.83;;;;;;;;;;6026381;23;20014;-70
2021/08/19 07:41:33;;;;;;;21.33;15.90;;;;;;;;;;6054046;23;20073;-72
2021/08/19 07:44:00;;;;;;;22.27;15.43;;;;;;;;;;6052574;23;20011;-71
2021/08/19 07:46:28;;;;;;;23.65;17.30;;;;;;;;;;6054739;23;20475;-74
2021/08/19 07:48:56;;;;;;;25.83;18.08;;;;;;;;;;6052380;23;20033;-72
2021/08/19 07:51:34;;;;;;;26.25;17.05;;;;;;;;;;6052591;23;20019;-78
2021/08/19 07:54:04;;;;;;;26.23;17.70;;;;;;;;;;6053605;23;20019;-71
2021/08/19 07:56:32;;;;;;;26.75;20.35;;;;;;;;;;6051499;23;20019;-72
2021/08/19 07:58:59;;;;;;;26.23;20.42;;;;;;;;;;6056083;23;20022;-71
2021/08/19 08:01:26;;;;;;;28.88;20.40;;;;;;;;;;6052140;23;20025;-73
2021/08/19 08:03:53;;;;;;;29.52;21.20;;;;;;;;;;6056205;23;20372;-71
2021/08/19 08:06:20;;;;;;;33.30;21.00;;;;;;;;;;6052003;23;20049;-72
2021/08/19 08:08:47;;;;;;;32.22;20.98;;;;;;;;;;6055101;23;20031;-74
2021/08/19 08:11:14;;;;;;;27.10;19.58;;;;;;;;;;6054232;23;20019;-72
2021/08/19 08:13:41;;;;;;;29.42;20.02;;;;;;;;;;6055017;23;20343;-70
2021/08/19 08:16:09;;;;;;;27.73;18.83;;;;;;;;;;6053021;23;20015;-71
2021/08/19 08:18:36;;;;;;;28.08;20.63;;;;;;;;;;6053114;23;20383;-76
2021/08/19 08:21:03;;;;;;;30.42;20.17;;;;;;;;;;6054044;23;20038;-74
2021/08/19 08:23:36;;;;;;;31.95;19.27;;;;;;;;;;6046654;23;20069;-72
2021/08/19 08:26:03;;;;;;;30.92;20.10;;;;;;;;;;6055416;23;20019;-71
2021/08/19 08:28:31;;;;;;;32.10;19.10;;;;;;;;;;6055336;23;20034;-71
2021/08/19 08:30:59;;;;;;;31.83;20.15;;;;;;;;;;6060603;23;20086;-78
2021/08/19 08:33:27;;;;;;;25.60;19.98;;;;;;;;;;6050224;23;20523;-73
2021/08/19 08:35:54;;;;;;;27.58;19.10;;;;;;;;;;6055967;23;20015;-71
2021/08/19 08:38:24;;;;;;;26.85;18.17;;;;;;;;;;6056840;23;20023;-72
2021/08/19 08:40:52;;;;;;;25.48;18.48;;;;;;;;;;6057439;23;20011;-72
2021/08/19 08:43:21;;;;;;;26.15;18.33;;;;;;;;;;6056108;23;20015;-72
2021/08/19 08:45:51;;;;;;;23.85;17.80;;;;;;;;;;6066920;23;20090;-72
2021/08/19 08:48:24;;;;;;;26.75;18.52;;;;;;;;;;6055112;23;20086;-72
2021/08/19 08:50:59;;;;;;;27.58;17.85;;;;;;;;;;6029949;23;20090;-72
2021/08/19 08:53:26;;;;;;;26.80;17.83;;;;;;;;;;6053720;23;20019;-72
2021/08/19 08:55:53;;;;;;;23.63;17.10;;;;;;;;;;6055629;23;20018;-73
2021/08/19 08:58:21;;;;;;;27.60;18.65;;;;;;;;;;6056495;23;20054;-72
2021/08/19 09:00:48;;;;;;;25.63;16.52;;;;;;;;;;6050484;23;20026;-73
2021/08/19 09:03:20;;;;;;;24.25;16.42;;;;;;;;;;6066942;23;20054;-71
2021/08/19 09:05:49;;;;;;;24.58;16.95;;;;;;;;;;6057366;23;20019;-71
2021/08/19 09:08:18;;;;;;;25.45;18.10;;;;;;;;;;6054194;23;20029;-72
2021/08/19 09:10:47;;;;;;;23.88;17.50;;;;;;;;;;6057723;23;20021;-71
2021/08/19 09:13:17;;;;;;;22.33;15.48;;;;;;;;;;6054403;23;20014;-71
2021/08/19 09:15:46;;;;;;;25.38;16.55;;;;;;;;;;6039915;23;20102;-71
2021/08/19 09:18:38;;;;;;;25.52;17.98;;;;;;;;;;6021816;23;21142;-72
2021/08/19 09:21:26;;;;;;;34.47;24.45;;;;;;;;;;6062577;23;20090;-78
2021/08/19 09:24:20;;;;;;;35.92;23.73;;;;;;;;;;6054053;23;20427;-76
2021/08/19 09:26:49;;;;;;;31.10;19.67;;;;;;;;;;6053913;23;20015;-72
2021/08/19 09:29:26;;;;;;;31.63;21.38;;;;;;;;;;6053522;23;20024;-72
2021/08/19 09:32:10;;;;;;;34.53;20.25;;;;;;;;;;6030241;23;20018;-72
2021/08/19 09:34:42;;;;;;;31.15;21.10;;;;;;;;;;6064696;23;20022;-80
2021/08/19 09:37:12;;;;;;;33.22;20.38;;;;;;;;;;6056440;23;20030;-73
2021/08/19 09:39:42;;;;;;;26.95;16.50;;;;;;;;;;6053289;23;20038;-72
2021/08/19 09:42:10;;;;;;;25.92;18.25;;;;;;;;;;6056043;23;20023;-79
2021/08/19 09:44:41;;;;;;;;;;;;;;;;;;6038770;23;20046;-80
2021/08/19 09:47:31;;;;;;;24.70;17.60;;;;;;;;;;6052165;23;19917;-73
2021/08/19 09:50:30;;;;;;;32.00;20.25;;;;;;;;;;6052102;23;20475;-77
2021/08/19 09:53:16;;;;;;;33.03;19.95;;;;;;;;;;6006482;23;20486;-77
2021/08/19 09:55:43;;;;;;;27.90;19.05;;;;;;;;;;6067609;23;20027;-74
2021/08/19 09:58:31;;;;;;;41.47;24.55;;;;;;;;;;6053192;23;20352;-74
2021/08/19 10:00:59;;;;;;;51.83;29.98;;;;;;;;;;6053746;23;20015;-74
2021/08/19 10:03:27;;;;;;;71.78;40.88;;;;;;;;;;6060412;23;20007;-74
2021/08/19 10:05:55;;;;;;;28.75;20.27;;;;;;;;;;6055056;23;20073;-74
2021/08/19 10:08:23;;;;;;;30.95;18.77;;;;;;;;;;6021318;23;20074;-75
2021/08/19 10:10:55;;;;;;;28.50;18.05;;;;;;;;;;6027456;23;20023;-75
2021/08/19 10:13:24;;;;;;;28.92;18.45;;;;;;;;;;6048538;23;20047;-74
2021/08/19 10:15:52;;;;;;;;;;;;;;;;;;6054761;23;20351;-75
2021/08/19 10:18:32;;;;;;;29.20;17.55;;;;;;;;;;6043207;23;19987;-74
2021/08/19 10:21:07;;;;;;;27.10;19.25;;;;;;;;;;6028651;23;20057;-75
2021/08/19 10:23:34;;;;;;;;;;;;;;;;;;6061542;23;20443;-73
2021/08/19 10:26:03;;;;;;;28.30;18.65;;;;;;;;;;6044934;23;19913;-74
2021/08/19 10:28:51;;;;;;;34.10;18.85;;;;;;;;;;6062880;23;20019;-74
2021/08/19 10:31:40;;;;;;;32.35;17.98;;;;;;;;;;6052380;23;20018;-72
2021/08/19 10:34:07;;;;;;;30.58;18.40;;;;;;;;;;6053998;23;20019;-72
2021/08/19 10:36:45;;;;;;;30.40;18.30;;;;;;;;;;6054872;23;20047;-72
2021/08/19 10:39:25;;;;;;;29.38;18.02;;;;;;;;;;6047566;23;20101;-74
2021/08/19 10:41:53;;;;;;;30.13;18.27;;;;;;;;;;6066610;23;20029;-72
2021/08/19 10:44:49;;;;;;;39.60;20.48;;;;;;;;;;6060426;23;20423;-77
2021/08/19 10:47:40;;;;;;;33.60;18.00;;;;;;;;;;6049830;23;20522;-73
2021/08/19 10:50:34;;;;;;;33.20;20.30;;;;;;;;;;6026989;23;20456;-72
2021/08/19 10:53:13;;;;;;;33.88;19.00;;;;;;;;;;6052627;23;20011;-73
2021/08/19 11:47:11;;;;;;;23.55;16.52;;;;;;;;;;6006385;23;20266;-80
2021/08/19 11:49:39;;;;;;;28.17;16.92;;;;;;;;;;6014550;23;20019;-83
2021/08/19 11:52:11;;;;;;;;;;;;;;;;;;6006734;23;20070;-77
2021/08/19 11:54:50;;;;;;;27.17;17.23;;;;;;;;;;6017731;23;19920;-80
2021/08/19 11:57:27;;;;;;;25.65;16.42;;;;;;;;;;6061928;23;20019;-82
2021/08/19 12:00:08;;;;;;;31.38;17.13;;;;;;;;;;6031661;23;20014;-82
2021/08/19 12:02:35;;;;;;;29.75;15.88;;;;;;;;;;6065411;23;20118;-82
2021/08/19 12:05:11;;;;;;;29.98;16.90;;;;;;;;;;6056414;23;20459;-83
2021/08/19 12:07:43;;;;;;;24.45;16.85;;;;;;;;;;6038223;23;20015;-84
2021/08/19 12:10:15;;;;;;;25.70;15.27;;;;;;;;;;6061738;23;20101;-84
2021/08/19 12:12:46;;;;;;;26.92;16.73;;;;;;;;;;6008548;23;20022;-83
2021/08/19 12:15:15;;;;;;;24.00;17.33;;;;;;;;;;6058105;23;20033;-83
2021/08/19 12:18:07;;;;;;;22.63;15.57;;;;;;;;;;6011002;23;20019;-82
2021/08/19 12:20:44;;;;;;;23.60;16.63;;;;;;;;;;5955974;23;20486;-85
2021/08/19 12:23:34;;;;;;;20.33;15.07;;;;;;;;;;6005169;23;20014;-85
2021/08/19 12:26:15;;;;;;;21.73;15.35;;;;;;;;;;6012505;23;20054;-84
2021/08/19 12:29:17;;;;;;;21.48;14.38;;;;;;;;;;6036819;23;20025;-84
2021/08/19 12:31:51;;;;;;;25.48;15.55;;;;;;;;;;6062157;23;20034;-85
2021/08/19 12:34:19;;;;;;;19.20;14.27;;;;;;;;;;6033112;23;20612;-87
2021/08/19 12:36:48;;;;;;;20.23;14.50;;;;;;;;;;6018024;23;20018;-82
2021/08/19 12:39:26;;;;;;;19.73;14.55;;;;;;;;;;6047603;23;20030;-83
2021/08/19 12:42:14;;;;;;;18.13;13.38;;;;;;;;;;6016696;23;20010;-84
2021/08/19 12:44:42;;;;;;;20.90;13.15;;;;;;;;;;6058335;23;20091;-82
2021/08/19 12:47:12;;;;;;;20.52;12.88;;;;;;;;;;6039587;23;20014;-84
2021/08/19 12:49:39;;;;;;;22.38;11.95;;;;;;;;;;6055289;23;20019;-83
2021/08/19 12:52:24;;;;;;;17.92;12.25;;;;;;;;;;6052912;23;20022;-84
2021/08/19 12:55:22;;;;;;;15.82;12.15;;;;;;;;;;6051343;23;20019;-83
2021/08/19 12:57:52;;;;;;;16.65;12.23;;;;;;;;;;6048703;23;20011;-83
2021/08/19 13:00:27;;;;;;;20.77;12.75;;;;;;;;;;6049124;23;20094;-82
2021/08/19 13:02:56;;;;;;;16.42;12.52;;;;;;;;;;6016457;23;20090;-84
2021/08/19 13:05:27;;;;;;;19.30;12.40;;;;;;;;;;6016059;23;20021;-82
2021/08/19 13:07:57;;;;;;;17.58;12.82;;;;;;;;;;6052571;23;20095;-81
2021/08/19 13:10:28;;;;;;;18.08;13.35;;;;;;;;;;6050795;23;20486;-82
2021/08/19 13:12:55;;;;;;;29.27;17.00;;;;;;;;;;6042266;23;21533;-81
2021/08/19 13:15:23;;;;;;;16.25;12.70;;;;;;;;;;6027654;23;20074;-80
2021/08/19 13:17:50;;;;;;;18.85;12.82;;;;;;;;;;6052958;23;20015;-81
2021/08/19 13:20:19;;;;;;;22.08;12.65;;;;;;;;;;6036004;23;20045;-81
2021/08/19 13:22:47;;;;;;;21.42;13.00;;;;;;;;;;6027577;23;20026;-83
2021/08/19 13:25:14;;;;;;;20.23;12.80;;;;;;;;;;6033942;23;20015;-80
2021/08/19 13:27:41;;;;;;;17.50;11.27;;;;;;;;;;6053486;23;20015;-79
2021/08/19 13:30:12;;;;;;;20.73;12.43;;;;;;;;;;6041424;23;20041;-80
2021/08/19 13:32:40;;;;;;;21.08;12.13;;;;;;;;;;6018568;23;20478;-83
2021/08/19 13:35:09;;;;;;;21.55;11.55;;;;;;;;;;6052456;23;20102;-85
2021/08/19 13:37:36;;;;;;;18.20;11.75;;;;;;;;;;6051849;23;20501;-79
2021/08/19 13:40:04;;;;;;;20.95;12.10;;;;;;;;;;6053184;23;20552;-78
2021/08/19 13:42:35;;;;;;;17.98;9.93;;;;;;;;;;6045472;23;20011;-81
2021/08/19 13:45:01;;;;;;;;;;;;;;;;;;6040233;23;20025;-82
2021/08/19 13:47:30;;;;;;;15.75;10.85;;;;;;;;;;6029567;23;19917;-80
2021/08/19 13:50:00;;;;;;;21.13;10.80;;;;;;;;;;6027247;23;20023;-86
2021/08/19 13:52:27;;;;;;;14.30;9.65;;;;;;;;;;6030987;23;20011;-81
2021/08/19 13:54:54;;;;;;;18.30;10.50;;;;;;;;;;6036148;23;20014;-80
2021/08/19 13:57:21;;;;;;;19.40;10.90;;;;;;;;;;6034267;23;20521;-80
2021/08/19 13:59:52;;;;;;;19.83;11.32;;;;;;;;;;6054865;23;20073;-81
2021/08/19 14:02:19;;;;;;;18.92;11.35;;;;;;;;;;6011707;23;20059;-80
2021/08/19 14:04:46;;;;;;;16.30;10.20;;;;;;;;;;6029369;23;20088;-81
2021/08/19 14:07:16;;;;;;;18.77;9.75;;;;;;;;;;6068300;23;20015;-80
2021/08/19 14:09:44;;;;;;;12.23;10.05;;;;;;;;;;6032559;23;20102;-81
2021/08/19 14:12:13;;;;;;;16.25;10.45;;;;;;;;;;6040197;23;20070;-79
2021/08/19 14:14:40;;;;;;;14.82;10.07;;;;;;;;;;6037130;23;20014;-80
2021/08/19 14:17:12;;;;;;;15.10;9.40;;;;;;;;;;6021383;23;20470;-82
2021/08/19 14:19:39;;;;;;;13.57;9.05;;;;;;;;;;6041344;23;20010;-82
2021/08/19 14:22:06;;;;;;;21.35;9.70;;;;;;;;;;6032636;23;20035;-80
2021/08/19 14:24:38;;;;;;;17.77;10.30;;;;;;;;;;6052557;23;20153;-82
2021/08/19 14:27:06;;;;;;;13.77;8.90;;;;;;;;;;6013168;23;20053;-80
2021/08/19 14:29:36;;;;;;;19.08;9.98;;;;;;;;;;5946722;23;20022;-84
2021/08/19 14:32:08;;;;;;;21.08;9.82;;;;;;;;;;5988762;23;20363;-84
2021/08/19 14:34:36;;;;;;;17.70;10.57;;;;;;;;;;5987635;23;20072;-82
2021/08/19 14:37:12;;;;;;;16.50;10.15;;;;;;;;;;6025151;23;20023;-82
2021/08/19 14:39:46;;;;;;;19.08;9.93;;;;;;;;;;5996338;23;20111;-83
2021/08/19 14:42:13;;;;;;;16.33;10.60;;;;;;;;;;6007389;23;20026;-84
2021/08/19 14:44:49;;;;;;;14.18;9.40;;;;;;;;;;6021061;23;20027;-83
2021/08/19 14:47:16;;;;;;;13.95;9.27;;;;;;;;;;5992425;23;20030;-86
2021/08/19 14:49:47;;;;;;;20.02;10.13;;;;;;;;;;6067218;23;20050;-87
2021/08/19 14:52:16;;;;;;;14.68;9.77;;;;;;;;;;6040453;23;20028;-83
2021/08/19 14:54:43;;;;;;;15.40;9.73;;;;;;;;;;6001746;23;20023;-83
2021/08/19 14:57:14;;;;;;;16.20;10.43;;;;;;;;;;6020667;23;20057;-83
2021/08/19 14:59:41;;;;;;;16.55;9.95;;;;;;;;;;6065571;23;20041;-84
2021/08/19 15:02:08;;;;;;;15.75;9.70;;;;;;;;;;6056110;23;20018;-83
2021/08/19 15:04:36;;;;;;;19.23;11.07;;;;;;;;;;6028387;23;20019;-82
2021/08/19 15:07:06;;;;;;;18.13;10.13;;;;;;;;;;6038163;23;20026;-83
2021/08/19 15:09:35;;;;;;;18.70;11.65;;;;;;;;;;6043892;23;20015;-85
2021/08/19 15:12:03;;;;;;;17.88;11.52;;;;;;;;;;6031673;23;20382;-85
2021/08/19 15:14:31;;;;;;;17.33;10.05;;;;;;;;;;6007480;23;20006;-87
2021/08/19 15:16:59;;;;;;;20.13;10.68;;;;;;;;;;6037872;23;20728;-84
2021/08/19 15:19:32;;;;;;;14.25;9.40;;;;;;;;;;6010562;23;20033;-88
2021/08/19 15:22:18;;;;;;;16.65;10.05;;;;;;;;;;6052067;23;20097;-87
2021/08/19 15:24:51;;;;;;;13.95;9.52;;;;;;;;;;6014819;23;20726;-86
2021/08/19 15:27:28;;;;;;;14.75;9.55;;;;;;;;;;6066168;23;20011;-82
2021/08/19 15:29:57;;;;;;;15.02;10.02;;;;;;;;;;6025493;23;20098;-84